Terminal Aerodrome Forecast
Issued by NWS

Home | Current Version | Previous Version | Text Only | Print | Product List | Glossary On
Versions: 1 2 3 4 5 6 7 8 9 10 11 12 13 14 15 16 17
000
FTUS44 KLIX 251120
TAFMSY
TAF
KMSY 251120Z 2512/2612 16010KT P6SM SCT018 BKN050
      TEMPO 2515/2518 4SM TSRA OVC025CB
     FM251800 20011KT P6SM VCSH BKN060
     FM252100 20014KT P6SM BKN060
     FM260200 19007KT P6SM SCT050
      TEMPO 2609/2612 4SM BR BKN015=

USA.gov is the U.S. government's official web portal to all federal, state and local government web resources and services.